createdAt,value
2023-01-20T00:00:53.790Z,2.59
2023-01-20T00:01:53.568Z,2.69
2023-01-20T00:02:53.729Z,2.62
2023-01-20T00:03:53.777Z,2.65
2023-01-20T00:04:53.537Z,2.59
2023-01-20T00:05:53.625Z,2.7
2023-01-20T00:06:53.553Z,2.57
2023-01-20T00:07:53.599Z,2.61
2023-01-20T00:08:53.550Z,2.62
2023-01-20T00:09:56.604Z,2.61
2023-01-20T00:10:53.552Z,2.58
2023-01-20T00:11:53.561Z,2.51
2023-01-20T00:12:53.582Z,2.54
2023-01-20T00:13:53.579Z,2.5
2023-01-20T00:14:53.581Z,2.46
2023-01-20T00:15:53.648Z,2.58
2023-01-20T00:16:53.559Z,2.54
2023-01-20T00:17:53.643Z,2.54
2023-01-20T00:18:53.647Z,2.5
2023-01-20T00:19:56.333Z,2.51
2023-01-20T00:20:53.565Z,2.62
2023-01-20T00:21:54.621Z,2.54
2023-01-20T00:22:53.584Z,2.58
2023-01-20T00:23:53.614Z,2.61
2023-01-20T00:24:53.622Z,2.59
2023-01-20T00:25:56.374Z,2.58
2023-01-20T00:26:53.575Z,2.59
2023-01-20T00:27:53.614Z,2.55
2023-01-20T00:28:53.595Z,2.64
2023-01-20T00:29:53.625Z,2.58
2023-01-20T00:30:53.827Z,2.57
2023-01-20T00:31:53.608Z,2.54
2023-01-20T00:32:53.609Z,2.52
2023-01-20T00:33:53.665Z,2.62
2023-01-20T00:34:53.578Z,2.61
2023-01-20T00:35:53.808Z,2.54
2023-01-20T00:36:53.622Z,2.59
2023-01-20T00:37:53.633Z,2.59
2023-01-20T00:38:53.476Z,2.64
2023-01-20T00:39:53.482Z,2.55
2023-01-20T00:40:53.596Z,2.57
2023-01-20T00:41:56.447Z,2.61
2023-01-20T00:42:53.646Z,2.61
2023-01-20T00:43:53.634Z,2.54
2023-01-20T00:44:53.593Z,2.43
2023-01-20T00:45:53.626Z,2.51
2023-01-20T00:46:53.851Z,2.54
2023-01-20T00:47:53.643Z,2.57
2023-01-20T00:48:53.524Z,2.62
2023-01-20T00:49:53.306Z,2.59
2023-01-20T00:50:53.606Z,2.54
2023-01-20T00:51:53.698Z,2.59
2023-01-20T00:52:54.592Z,2.58
2023-01-20T00:53:53.493Z,2.62
2023-01-20T00:54:53.611Z,2.68
2023-01-20T00:55:53.505Z,2.57
2023-01-20T00:56:53.647Z,2.69
2023-01-20T00:57:56.410Z,2.61
2023-01-20T00:58:53.633Z,2.72
2023-01-20T00:59:53.640Z,2.59
2023-01-20T01:00:53.834Z,2.69
2023-01-20T01:01:54.086Z,2.64
2023-01-20T01:02:56.958Z,2.61
2023-01-20T01:03:56.794Z,2.59
2023-01-20T01:04:53.727Z,2.52
2023-01-20T01:05:54.721Z,2.51
2023-01-20T01:06:53.672Z,2.64
2023-01-20T01:07:53.649Z,2.54
2023-01-20T01:08:53.639Z,2.64
2023-01-20T01:09:53.706Z,2.69
2023-01-20T01:10:53.663Z,2.69
2023-01-20T01:11:53.724Z,2.69
2023-01-20T01:12:53.662Z,2.61
2023-01-20T01:13:53.666Z,2.65
2023-01-20T01:14:56.676Z,2.69
2023-01-20T01:15:53.739Z,2.65
2023-01-20T01:16:54.536Z,2.68
2023-01-20T01:17:53.674Z,2.65
2023-01-20T01:18:53.665Z,2.65
2023-01-20T01:19:53.506Z,2.64
2023-01-20T01:20:53.672Z,2.72
2023-01-20T01:21:53.689Z,2.65
2023-01-20T01:22:53.682Z,2.7
2023-01-20T01:23:53.768Z,2.73
2023-01-20T01:24:53.681Z,2.76
2023-01-20T01:25:56.481Z,2.7
2023-01-20T01:26:53.675Z,2.62
2023-01-20T01:27:53.740Z,2.69
2023-01-20T01:28:53.693Z,2.64
2023-01-20T01:29:53.679Z,2.62
2023-01-20T01:30:53.916Z,2.68
2023-01-20T01:31:53.748Z,2.72
2023-01-20T01:32:53.712Z,2.72
2023-01-20T01:33:53.683Z,2.79
2023-01-20T01:34:53.715Z,2.7
2023-01-20T01:35:53.695Z,2.76
2023-01-20T01:36:56.572Z,2.73
2023-01-20T01:37:53.702Z,2.69
2023-01-20T01:39:03.624Z,2.72
2023-01-20T01:39:53.689Z,2.7
2023-01-20T01:40:53.703Z,2.73
2023-01-20T01:41:53.731Z,2.79
2023-01-20T01:42:53.707Z,2.72
2023-01-20T01:43:53.761Z,2.76
2023-01-20T01:44:53.735Z,2.73
2023-01-20T01:45:54.046Z,2.75
2023-01-20T01:46:53.709Z,2.75
2023-01-20T01:48:02.785Z,2.69
2023-01-20T01:48:53.705Z,2.68
2023-01-20T01:49:53.753Z,2.61
2023-01-20T01:50:53.691Z,2.62
2023-01-20T01:51:53.718Z,2.73
2023-01-20T01:52:53.758Z,2.68
2023-01-20T01:53:53.814Z,2.62
2023-01-20T01:54:53.744Z,2.68
2023-01-20T01:55:53.738Z,2.65
2023-01-20T01:56:53.727Z,2.69
2023-01-20T01:57:53.785Z,2.64
2023-01-20T01:58:56.756Z,2.68
2023-01-20T01:59:53.753Z,2.68
2023-01-20T02:00:53.947Z,2.72
2023-01-20T02:01:54.193Z,2.62
2023-01-20T02:02:53.730Z,2.68
2023-01-20T02:03:56.786Z,2.59
2023-01-20T02:04:56.135Z,2.55
2023-01-20T02:05:53.732Z,2.65
2023-01-20T02:06:56.756Z,2.58
2023-01-20T02:07:53.747Z,2.68
2023-01-20T02:08:53.813Z,2.64
2023-01-20T02:09:56.834Z,2.64
2023-01-20T02:10:53.764Z,2.52
2023-01-20T02:11:53.736Z,2.55
2023-01-20T02:12:53.771Z,2.7
2023-01-20T02:13:53.784Z,2.72
2023-01-20T02:14:56.859Z,2.7
2023-01-20T02:15:53.754Z,2.65
2023-01-20T02:16:53.796Z,2.61
2023-01-20T02:17:53.785Z,2.62
2023-01-20T02:18:53.884Z,2.68
2023-01-20T02:19:53.912Z,2.68
2023-01-20T02:20:56.916Z,2.72
2023-01-20T02:21:53.756Z,2.64
2023-01-20T02:22:53.772Z,2.65
2023-01-20T02:23:53.772Z,2.62
2023-01-20T02:24:53.772Z,2.65
2023-01-20T02:25:56.850Z,2.68
2023-01-20T02:26:53.812Z,2.62
2023-01-20T02:27:53.805Z,2.61
2023-01-20T02:28:53.817Z,2.62
2023-01-20T02:29:53.953Z,2.72
2023-01-20T02:30:53.971Z,2.76
2023-01-20T02:31:54.014Z,2.64
2023-01-20T02:32:53.778Z,2.64
2023-01-20T02:33:53.810Z,2.64
2023-01-20T02:34:53.770Z,2.61
2023-01-20T02:35:53.786Z,2.69
2023-01-20T02:36:56.595Z,2.64
2023-01-20T02:37:53.921Z,2.62
2023-01-20T02:38:53.807Z,2.61
2023-01-20T02:39:53.825Z,2.55
2023-01-20T02:40:53.819Z,2.59
2023-01-20T02:41:53.803Z,2.64
2023-01-20T02:42:53.784Z,2.61
2023-01-20T02:43:53.825Z,2.61
2023-01-20T02:44:53.849Z,2.46
2023-01-20T02:45:54.058Z,2.64
2023-01-20T02:46:53.839Z,2.54
2023-01-20T02:47:56.538Z,2.57
2023-01-20T02:48:53.832Z,2.58
2023-01-20T02:49:53.799Z,2.47
2023-01-20T02:50:53.801Z,2.62
2023-01-20T02:51:53.831Z,2.61
2023-01-20T02:52:56.690Z,2.61
2023-01-20T02:53:53.833Z,2.59
2023-01-20T02:54:53.835Z,2.73
2023-01-20T02:55:53.832Z,2.65
2023-01-20T02:56:53.883Z,2.64
2023-01-20T02:57:53.844Z,2.52
2023-01-20T02:58:53.819Z,2.5
2023-01-20T02:59:53.861Z,2.5
2023-01-20T03:00:53.967Z,2.58
2023-01-20T03:01:54.291Z,2.59
2023-01-20T03:02:53.840Z,2.52
2023-01-20T03:03:57.592Z,2.51
2023-01-20T03:04:53.815Z,2.44
2023-01-20T03:05:54.084Z,2.5
2023-01-20T03:06:53.999Z,2.44
2023-01-20T03:07:56.605Z,2.51
2023-01-20T03:08:56.966Z,2.62
2023-01-20T03:09:53.846Z,2.52
2023-01-20T03:10:53.839Z,2.62
2023-01-20T03:11:53.864Z,2.61
2023-01-20T03:12:53.919Z,2.5
2023-01-20T03:13:53.847Z,2.61
2023-01-20T03:14:53.891Z,2.47
2023-01-20T03:15:53.882Z,2.54
2023-01-20T03:16:54.067Z,2.59
2023-01-20T03:17:53.910Z,2.52
2023-01-20T03:18:54.052Z,2.52
2023-01-20T03:19:56.842Z,2.59
2023-01-20T03:20:53.882Z,2.47
2023-01-20T03:21:53.840Z,2.64
2023-01-20T03:22:53.869Z,2.54
2023-01-20T03:23:53.845Z,2.59
2023-01-20T03:24:53.899Z,2.47
2023-01-20T03:25:53.884Z,2.54
2023-01-20T03:26:53.884Z,2.54
2023-01-20T03:27:53.891Z,2.59
2023-01-20T03:28:53.932Z,2.57
2023-01-20T03:29:53.884Z,2.54
2023-01-20T03:30:57.052Z,2.65
2023-01-20T03:31:53.916Z,2.58
2023-01-20T03:32:53.887Z,2.51
2023-01-20T03:33:53.900Z,2.47
2023-01-20T03:34:53.922Z,2.51
2023-01-20T03:35:53.877Z,2.58
2023-01-20T03:36:53.895Z,2.51
2023-01-20T03:37:53.902Z,2.44
2023-01-20T03:38:53.893Z,2.4
2023-01-20T03:39:53.913Z,2.51
2023-01-20T03:40:53.867Z,2.51
2023-01-20T03:41:56.997Z,2.55
2023-01-20T03:42:53.919Z,2.58
2023-01-20T03:43:53.898Z,2.51
2023-01-20T03:44:53.937Z,2.41
2023-01-20T03:45:54.004Z,2.37
2023-01-20T03:46:53.912Z,2.33
2023-01-20T03:47:53.921Z,2.36
2023-01-20T03:48:53.949Z,2.4
2023-01-20T03:49:53.926Z,2.32
2023-01-20T03:50:54.013Z,2.46
2023-01-20T03:51:53.917Z,2.33
2023-01-20T03:52:57.048Z,2.33
2023-01-20T03:53:53.932Z,2.33
2023-01-20T03:54:53.906Z,2.3
2023-01-20T03:55:53.902Z,2.23
2023-01-20T03:56:53.917Z,2.19
2023-01-20T03:57:53.921Z,2.1
2023-01-20T03:58:53.935Z,2.12
2023-01-20T03:59:53.946Z,2.21
2023-01-20T04:00:53.988Z,2.08
2023-01-20T04:01:54.604Z,2.1
2023-01-20T04:02:53.939Z,2.12
2023-01-20T04:03:56.701Z,2.12
2023-01-20T04:04:53.944Z,2.19
2023-01-20T04:05:53.963Z,2.15
2023-01-20T04:06:53.945Z,2.19
2023-01-20T04:07:53.927Z,2.15
2023-01-20T04:08:56.433Z,2.08
2023-01-20T04:09:54.008Z,2.07
2023-01-20T04:10:53.947Z,2.12
2023-01-20T04:11:53.938Z,2.12
2023-01-20T04:12:53.936Z,2.15
2023-01-20T04:13:53.980Z,2.14
2023-01-20T04:14:56.981Z,2.1
2023-01-20T04:15:54.090Z,2.08
2023-01-20T04:16:53.988Z,2.12
2023-01-20T04:17:53.989Z,2.1
2023-01-20T04:18:53.967Z,2.07
2023-01-20T04:19:54.002Z,2.07
2023-01-20T04:20:54.002Z,2.08
2023-01-20T04:21:53.981Z,2.16
2023-01-20T04:22:53.996Z,2.05
2023-01-20T04:23:53.954Z,2.15
2023-01-20T04:24:53.976Z,2.1
2023-01-20T04:25:57.043Z,2.12
2023-01-20T04:26:53.965Z,2.15
2023-01-20T04:27:53.986Z,2.15
2023-01-20T04:28:53.967Z,2.1
2023-01-20T04:29:53.989Z,2.1
2023-01-20T04:30:57.462Z,2.04
2023-01-20T04:31:54.250Z,2.05
2023-01-20T04:32:53.998Z,2.07
2023-01-20T04:33:53.992Z,1.95
2023-01-20T04:34:54.013Z,1.86
2023-01-20T04:35:53.965Z,1.97
2023-01-20T04:36:57.031Z,1.88
2023-01-20T04:37:53.986Z,2
2023-01-20T04:38:54.021Z,1.86
2023-01-20T04:39:53.999Z,2
2023-01-20T04:40:53.981Z,1.92
2023-01-20T04:41:56.812Z,1.98
2023-01-20T04:42:53.994Z,2.07
2023-01-20T04:43:53.997Z,2.05
2023-01-20T04:44:54.044Z,2.1
2023-01-20T04:45:54.087Z,2.1
2023-01-20T04:46:54.016Z,2.05
2023-01-20T04:47:56.981Z,2.05
2023-01-20T04:48:54.041Z,2.03
2023-01-20T04:49:54.020Z,1.98
2023-01-20T04:50:54.001Z,2.05
2023-01-20T04:51:53.989Z,2.04
2023-01-20T04:53:00.580Z,1.92
2023-01-20T04:53:54.210Z,2
2023-01-20T04:54:54.074Z,1.97
2023-01-20T04:55:53.983Z,1.98
2023-01-20T04:56:54.023Z,2.04
2023-01-20T04:57:53.995Z,2
2023-01-20T04:58:54.165Z,2.07
2023-01-20T04:59:54.026Z,2.08
2023-01-20T05:00:54.037Z,2.1
2023-01-20T05:01:54.669Z,2.05
2023-01-20T05:02:54.238Z,2.03
2023-01-20T05:03:57.114Z,2.08
2023-01-20T05:04:54.024Z,2
2023-01-20T05:05:54.013Z,2.04
2023-01-20T05:06:54.038Z,2.04
2023-01-20T05:07:54.039Z,2.07
2023-01-20T05:08:54.052Z,1.97
2023-01-20T05:09:54.050Z,1.92
2023-01-20T05:10:54.058Z,1.86
2023-01-20T05:11:54.031Z,1.84
2023-01-20T05:12:54.032Z,1.92
2023-01-20T05:13:54.029Z,1.95
2023-01-20T05:14:54.058Z,1.93
2023-01-20T05:15:54.161Z,1.88
2023-01-20T05:16:54.044Z,2.01
2023-01-20T05:17:54.140Z,2.04
2023-01-20T05:18:54.028Z,2.08
2023-01-20T05:19:56.834Z,2.04
2023-01-20T05:20:54.044Z,2.05
2023-01-20T05:21:54.333Z,2.07
2023-01-20T05:22:54.058Z,2.19
2023-01-20T05:23:54.048Z,2.15
2023-01-20T05:24:54.115Z,2.18
2023-01-20T05:25:54.069Z,2.16
2023-01-20T05:26:54.088Z,2.15
2023-01-20T05:27:54.030Z,2.1
2023-01-20T05:28:54.051Z,2.1
2023-01-20T05:29:54.077Z,2.23
2023-01-20T05:30:57.743Z,2.16
2023-01-20T05:31:54.120Z,2.1
2023-01-20T05:32:54.083Z,2.18
2023-01-20T05:33:54.106Z,2.07
2023-01-20T05:34:54.153Z,2.08
2023-01-20T05:35:59.109Z,2.1
2023-01-20T05:36:54.075Z,2.08
2023-01-20T05:37:54.073Z,2.08
2023-01-20T05:38:54.052Z,2.08
2023-01-20T05:39:54.158Z,2.07
2023-01-20T05:40:54.101Z,2.07
2023-01-20T05:41:54.061Z,2.08
2023-01-20T05:42:54.098Z,2.08
2023-01-20T05:43:54.074Z,2.12
2023-01-20T05:44:54.079Z,2.05
2023-01-20T05:45:54.093Z,2.14
2023-01-20T05:46:56.938Z,2.15
2023-01-20T05:47:54.073Z,2.22
2023-01-20T05:48:54.089Z,2.14
2023-01-20T05:49:54.114Z,2.23
2023-01-20T05:50:54.084Z,2.32
2023-01-20T05:51:54.097Z,2.22
2023-01-20T05:52:54.199Z,2.28
2023-01-20T05:53:54.173Z,2.23
2023-01-20T05:54:54.382Z,2.26
2023-01-20T05:55:54.128Z,2.23
2023-01-20T05:56:55.171Z,2.15
2023-01-20T05:57:56.997Z,2.18
2023-01-20T05:58:54.110Z,2.22
2023-01-20T05:59:54.121Z,2.12
2023-01-20T06:00:54.123Z,2.23
2023-01-20T06:01:54.460Z,2.12
2023-01-20T06:02:54.218Z,2.1
2023-01-20T06:03:54.302Z,2.1
2023-01-20T06:04:53.811Z,2.14
2023-01-20T06:05:54.112Z,2.14
2023-01-20T06:06:54.134Z,2.18
2023-01-20T06:07:54.148Z,2.19
2023-01-20T06:08:56.933Z,2.15
2023-01-20T06:09:54.125Z,2.22
2023-01-20T06:10:55.273Z,2.18
2023-01-20T06:11:54.128Z,2.16
2023-01-20T06:12:54.166Z,2.22
2023-01-20T06:13:54.163Z,2.25
2023-01-20T06:14:54.128Z,2.18
2023-01-20T06:15:54.280Z,2.19
2023-01-20T06:16:54.135Z,2.08
2023-01-20T06:17:54.168Z,2.16
2023-01-20T06:18:54.116Z,2.14
2023-01-20T06:19:57.260Z,2.16
2023-01-20T06:20:54.161Z,2.16
2023-01-20T06:21:54.152Z,2.1
2023-01-20T06:22:54.135Z,2.18
2023-01-20T06:23:54.195Z,2.25
2023-01-20T06:24:54.159Z,2.18
2023-01-20T06:25:55.222Z,2.14
2023-01-20T06:26:57.233Z,2.15
2023-01-20T06:27:54.164Z,2.19
2023-01-20T06:28:54.282Z,2.25
2023-01-20T06:29:54.233Z,2.22
2023-01-20T06:30:57.479Z,2.3
2023-01-20T06:31:54.373Z,2.21
2023-01-20T06:32:54.158Z,2.18
2023-01-20T06:33:54.199Z,2.19
2023-01-20T06:34:54.182Z,2.19
2023-01-20T06:35:54.151Z,2.25
2023-01-20T06:36:54.168Z,2.22
2023-01-20T06:37:54.172Z,2.21
2023-01-20T06:38:54.166Z,2.21
2023-01-20T06:39:54.313Z,2.19
2023-01-20T06:40:54.166Z,2.22
2023-01-20T06:41:56.978Z,2.26
2023-01-20T06:42:54.192Z,2.19
2023-01-20T06:43:54.187Z,2.19
2023-01-20T06:44:54.209Z,2.25
2023-01-20T06:45:54.194Z,2.23
2023-01-20T06:46:54.458Z,2.21
2023-01-20T06:47:54.197Z,2.21
2023-01-20T06:48:54.175Z,2.21
2023-01-20T06:49:54.204Z,2.14
2023-01-20T06:50:54.171Z,2.23
2023-01-20T06:51:54.224Z,2.14
2023-01-20T06:52:56.949Z,2.19
2023-01-20T06:53:54.188Z,2.21
2023-01-20T06:54:54.191Z,2.14
2023-01-20T06:55:57.509Z,2.21
2023-01-20T06:56:54.210Z,2.3
2023-01-20T06:57:54.459Z,2.3
2023-01-20T06:58:54.437Z,2.23
2023-01-20T06:59:54.271Z,2.22
2023-01-20T07:00:54.520Z,2.37
2023-01-20T07:01:54.779Z,2.36
2023-01-20T07:02:54.190Z,2.33
2023-01-20T07:03:57.097Z,2.33
2023-01-20T07:04:54.218Z,2.23
2023-01-20T07:05:54.215Z,2.36
2023-01-20T07:06:54.224Z,2.21
2023-01-20T07:07:54.255Z,2.26
2023-01-20T07:09:00.134Z,2.36
2023-01-20T07:09:54.268Z,2.3
2023-01-20T07:10:54.211Z,2.32
2023-01-20T07:11:54.243Z,2.46
2023-01-20T07:12:54.241Z,2.46
2023-01-20T07:13:54.247Z,2.5
2023-01-20T07:14:57.090Z,2.37
2023-01-20T07:15:54.223Z,2.41
2023-01-20T07:16:54.495Z,2.44
2023-01-20T07:17:54.237Z,2.41
2023-01-20T07:18:54.222Z,2.32
2023-01-20T07:19:57.159Z,2.32
2023-01-20T07:20:54.222Z,2.26
2023-01-20T07:21:54.257Z,2.32
2023-01-20T07:22:54.267Z,2.37
2023-01-20T07:23:54.303Z,2.34
2023-01-20T07:24:54.259Z,2.47
2023-01-20T07:25:54.239Z,2.34
2023-01-20T07:26:54.251Z,2.5
2023-01-20T07:27:54.272Z,2.46
2023-01-20T07:28:54.270Z,2.44
2023-01-20T07:29:54.258Z,2.47
2023-01-20T07:30:57.551Z,2.44
2023-01-20T07:31:54.351Z,2.43
2023-01-20T07:32:54.453Z,2.51
2023-01-20T07:33:54.397Z,2.54
2023-01-20T07:34:55.030Z,2.52
2023-01-20T07:35:54.088Z,2.47
2023-01-20T07:36:54.232Z,2.4
2023-01-20T07:37:54.326Z,2.54
2023-01-20T07:38:54.250Z,2.47
2023-01-20T07:39:54.335Z,2.4
2023-01-20T07:40:54.262Z,2.52
2023-01-20T07:41:54.340Z,2.55
2023-01-20T07:42:54.261Z,2.44
2023-01-20T07:43:54.366Z,2.51
2023-01-20T07:44:54.303Z,2.54
2023-01-20T07:45:54.458Z,2.62
2023-01-20T07:46:57.305Z,2.44
2023-01-20T07:47:54.283Z,2.58
2023-01-20T07:48:54.310Z,2.52
2023-01-20T07:49:54.339Z,2.51
2023-01-20T07:50:54.364Z,2.5
2023-01-20T07:51:54.283Z,2.58
2023-01-20T07:52:54.275Z,2.55
2023-01-20T07:53:54.412Z,2.64
2023-01-20T07:54:54.289Z,2.44
2023-01-20T07:55:54.281Z,2.65
2023-01-20T07:56:54.285Z,2.52
2023-01-20T07:57:57.351Z,2.54
2023-01-20T07:58:54.302Z,2.58
2023-01-20T07:59:54.471Z,2.61
2023-01-20T08:00:54.392Z,2.64
2023-01-20T08:01:54.581Z,2.62
2023-01-20T08:02:57.111Z,2.5
2023-01-20T08:03:54.323Z,2.52
2023-01-20T08:04:54.609Z,2.51
2023-01-20T08:05:54.329Z,2.62
2023-01-20T08:06:54.288Z,2.58
2023-01-20T08:07:54.372Z,2.58
2023-01-20T08:08:54.346Z,2.59
2023-01-20T08:09:54.332Z,2.7
2023-01-20T08:10:54.679Z,2.65
2023-01-20T08:11:54.371Z,2.61
2023-01-20T08:12:54.399Z,2.68
2023-01-20T08:13:57.037Z,2.64
2023-01-20T08:14:54.337Z,2.73
2023-01-20T08:15:54.341Z,2.72
2023-01-20T08:16:54.637Z,2.69
2023-01-20T08:17:54.313Z,2.61
2023-01-20T08:18:54.314Z,2.7
2023-01-20T08:19:54.346Z,2.65
2023-01-20T08:20:54.352Z,2.69
2023-01-20T08:21:54.361Z,2.72
2023-01-20T08:22:54.309Z,2.72
2023-01-20T08:23:54.363Z,2.69
2023-01-20T08:24:57.231Z,2.69
2023-01-20T08:25:54.338Z,2.8
2023-01-20T08:26:54.360Z,2.73
2023-01-20T08:27:54.376Z,2.76
2023-01-20T08:28:54.545Z,2.77
2023-01-20T08:29:54.403Z,2.72
2023-01-20T08:30:54.713Z,2.79
2023-01-20T08:31:54.743Z,2.68
2023-01-20T08:32:54.376Z,2.7
2023-01-20T08:33:54.347Z,2.76
2023-01-20T08:34:54.373Z,2.88
2023-01-20T08:35:57.514Z,2.85
2023-01-20T08:36:54.424Z,2.9
2023-01-20T08:37:54.413Z,2.9
2023-01-20T08:38:54.426Z,2.85
2023-01-20T08:39:54.328Z,2.75
2023-01-20T08:40:54.376Z,2.77
2023-01-20T08:41:54.428Z,2.79
2023-01-20T08:42:54.380Z,2.83
2023-01-20T08:43:54.667Z,2.79
2023-01-20T08:44:54.357Z,2.8
2023-01-20T08:45:55.073Z,2.83
2023-01-20T08:46:57.456Z,2.83
2023-01-20T08:47:54.377Z,2.95
2023-01-20T08:48:54.399Z,2.93
2023-01-20T08:49:54.399Z,2.85
2023-01-20T08:50:54.534Z,2.83
2023-01-20T08:51:54.393Z,2.93
2023-01-20T08:52:54.424Z,2.76
2023-01-20T08:53:54.397Z,2.97
2023-01-20T08:54:54.371Z,2.95
2023-01-20T08:55:54.518Z,2.97
2023-01-20T08:56:54.433Z,2.91
2023-01-20T08:57:57.338Z,2.95
2023-01-20T08:58:54.413Z,3
2023-01-20T08:59:54.391Z,2.94
2023-01-20T09:00:54.448Z,2.88
2023-01-20T09:01:54.409Z,2.95
2023-01-20T09:02:54.561Z,2.91
2023-01-20T09:04:10.103Z,3.08
2023-01-20T09:04:54.545Z,2.95
2023-01-20T09:05:54.429Z,2.95
2023-01-20T09:06:54.455Z,3.05
2023-01-20T09:07:54.418Z,3.05
2023-01-20T09:08:57.697Z,3.06
2023-01-20T09:09:54.445Z,3.08
2023-01-20T09:10:54.429Z,3.05
2023-01-20T09:11:54.468Z,3
2023-01-20T09:12:54.404Z,3.06
2023-01-20T09:13:54.463Z,2.98
2023-01-20T09:14:54.422Z,2.98
2023-01-20T09:15:54.610Z,3.06
2023-01-20T09:16:54.428Z,2.94
2023-01-20T09:17:54.415Z,3.01
2023-01-20T09:18:54.438Z,3.08
2023-01-20T09:19:57.555Z,3.05
2023-01-20T09:20:54.472Z,3.12
2023-01-20T09:21:54.431Z,3.11
2023-01-20T09:22:54.437Z,3.03
2023-01-20T09:23:54.416Z,3.03
2023-01-20T09:24:57.558Z,3.06
2023-01-20T09:25:54.470Z,3.01
2023-01-20T09:26:54.450Z,3.05
2023-01-20T09:27:54.433Z,3.11
2023-01-20T09:28:54.444Z,3.03
2023-01-20T09:29:54.416Z,3.05
2023-01-20T09:30:57.577Z,3.03
2023-01-20T09:31:54.922Z,2.94
2023-01-20T09:32:54.453Z,3.01
2023-01-20T09:33:54.497Z,3.01
2023-01-20T09:34:54.477Z,3.03
2023-01-20T09:35:58.051Z,3.03
2023-01-20T09:36:54.479Z,2.94
2023-01-20T09:37:54.442Z,3.05
2023-01-20T09:38:54.504Z,2.88
2023-01-20T09:39:54.458Z,2.85
2023-01-20T09:40:54.555Z,2.94
2023-01-20T09:41:57.552Z,2.94
2023-01-20T09:42:54.505Z,2.98
2023-01-20T09:43:54.468Z,3.06
2023-01-20T09:44:54.482Z,3
2023-01-20T09:45:54.670Z,3.03
2023-01-20T09:46:57.226Z,2.98
2023-01-20T09:47:54.475Z,2.95
2023-01-20T09:48:54.504Z,3.05
2023-01-20T09:49:54.462Z,3.05
2023-01-20T09:50:54.647Z,2.91
2023-01-20T09:51:54.487Z,3.01
2023-01-20T09:52:54.537Z,3.05
2023-01-20T09:53:54.496Z,3.06
2023-01-20T09:54:54.479Z,3.01
2023-01-20T09:55:54.533Z,3.06
2023-01-20T09:56:54.538Z,3.09
2023-01-20T09:57:57.341Z,3.13
2023-01-20T09:58:54.509Z,3.21
2023-01-20T09:59:55.536Z,3.22
2023-01-20T10:00:54.523Z,3.22
2023-01-20T10:01:57.141Z,3.29
2023-01-20T10:02:54.504Z,3.21
2023-01-20T10:03:54.477Z,3.24
2023-01-20T10:04:54.614Z,3.29
2023-01-20T10:05:54.521Z,3.37
2023-01-20T10:06:54.546Z,3.41
2023-01-20T10:07:54.519Z,3.41
2023-01-20T10:09:09.534Z,3.49
2023-01-20T10:09:54.485Z,3.5
2023-01-20T10:10:54.551Z,3.48
2023-01-20T10:11:54.527Z,3.56
2023-01-20T10:12:54.580Z,3.5
2023-01-20T10:13:57.512Z,3.61
2023-01-20T10:14:57.540Z,3.64
2023-01-20T10:15:54.751Z,3.56
2023-01-20T10:16:54.535Z,3.64
2023-01-20T10:17:54.524Z,3.53
2023-01-20T10:18:54.538Z,3.67
2023-01-20T10:19:54.533Z,3.67
2023-01-20T10:20:54.582Z,3.64
2023-01-20T10:21:54.504Z,3.76
2023-01-20T10:22:54.575Z,3.67
2023-01-20T10:23:54.554Z,3.68
2023-01-20T10:24:54.737Z,3.76
2023-01-20T10:25:54.559Z,3.84
2023-01-20T10:26:54.558Z,3.89
2023-01-20T10:27:54.556Z,3.77
2023-01-20T10:28:54.613Z,3.88
2023-01-20T10:29:57.620Z,3.78
2023-01-20T10:30:55.160Z,3.84
2023-01-20T10:31:54.905Z,3.82
2023-01-20T10:32:54.581Z,3.89
2023-01-20T10:33:54.531Z,3.74
2023-01-20T10:34:56.496Z,3.86
2023-01-20T10:35:54.600Z,3.85
2023-01-20T10:36:57.510Z,3.95
2023-01-20T10:37:54.599Z,3.86
2023-01-20T10:38:54.596Z,3.95
2023-01-20T10:39:54.664Z,3.92
2023-01-20T10:40:57.855Z,3.95
2023-01-20T10:41:54.530Z,3.89
2023-01-20T10:42:54.563Z,3.91
2023-01-20T10:43:54.577Z,3.91
2023-01-20T10:44:54.637Z,3.92
2023-01-20T10:45:54.561Z,3.84
2023-01-20T10:46:54.732Z,3.84
2023-01-20T10:47:54.554Z,3.82
2023-01-20T10:48:54.654Z,3.78
2023-01-20T10:49:54.551Z,3.82
2023-01-20T10:50:54.585Z,3.85
2023-01-20T10:51:57.581Z,3.81
2023-01-20T10:52:54.607Z,3.94
2023-01-20T10:53:54.602Z,3.78
2023-01-20T10:54:54.680Z,3.88
2023-01-20T10:55:56.558Z,3.88
2023-01-20T10:56:54.598Z,3.78
2023-01-20T10:57:59.955Z,3.96
2023-01-20T10:58:54.601Z,3.84
2023-01-20T10:59:54.567Z,3.86
2023-01-20T11:00:54.676Z,3.86
2023-01-20T11:02:13.852Z,3.82
2023-01-20T11:02:59.891Z,3.86
2023-01-20T11:03:54.574Z,3.91
2023-01-20T11:04:54.624Z,4
2023-01-20T11:05:54.434Z,4.03
2023-01-20T11:06:54.651Z,4.12
2023-01-20T11:07:54.616Z,4.09
2023-01-20T11:08:54.644Z,4.12
2023-01-20T11:09:54.616Z,4
2023-01-20T11:10:54.622Z,4.09
2023-01-20T11:11:54.619Z,4.04
2023-01-20T11:12:54.671Z,4.03
2023-01-20T11:13:57.733Z,3.99
2023-01-20T11:14:54.626Z,4.12
2023-01-20T11:15:54.674Z,4.06
2023-01-20T11:16:54.766Z,4.14
2023-01-20T11:17:54.598Z,4.18
2023-01-20T11:18:54.597Z,4.16
2023-01-20T11:19:54.595Z,4.25
2023-01-20T11:20:54.642Z,4.12
2023-01-20T11:21:54.633Z,4.13
2023-01-20T11:22:54.672Z,4.21
2023-01-20T11:23:54.676Z,4.12
2023-01-20T11:24:57.449Z,4.16
2023-01-20T11:25:54.623Z,4.1
2023-01-20T11:26:54.675Z,4.13
2023-01-20T11:27:54.638Z,4.14
2023-01-20T11:28:54.666Z,4.22
2023-01-20T11:29:54.617Z,4.18
2023-01-20T11:30:54.861Z,4.27
2023-01-20T11:31:54.996Z,4.1
2023-01-20T11:32:54.723Z,4.12
2023-01-20T11:33:54.687Z,4.22
2023-01-20T11:34:57.361Z,4.18
2023-01-20T11:35:57.427Z,4.34
2023-01-20T11:36:54.699Z,4.21
2023-01-20T11:37:54.666Z,4.2
2023-01-20T11:38:54.620Z,4.4
2023-01-20T11:39:54.655Z,4.31
2023-01-20T11:40:54.653Z,4.16
2023-01-20T11:41:54.653Z,4.34
2023-01-20T11:42:54.856Z,4.4
2023-01-20T11:43:54.664Z,4.4
2023-01-20T11:44:54.732Z,4.43
2023-01-20T11:45:54.687Z,4.46
2023-01-20T11:46:57.588Z,4.4
2023-01-20T11:47:54.653Z,4.36
2023-01-20T11:48:54.695Z,4.4
2023-01-20T11:49:54.717Z,4.46
2023-01-20T11:50:54.758Z,4.38
2023-01-20T11:51:55.099Z,4.36
2023-01-20T11:52:54.668Z,4.46
2023-01-20T11:53:54.648Z,4.46
2023-01-20T11:54:54.660Z,4.43
2023-01-20T11:55:54.686Z,4.38
2023-01-20T11:56:54.718Z,4.53
2023-01-20T11:57:57.744Z,4.46
2023-01-20T11:58:54.677Z,4.5
2023-01-20T11:59:55.718Z,4.56
2023-01-20T12:00:54.676Z,4.6
2023-01-20T12:01:54.893Z,4.48
2023-01-20T12:02:57.780Z,4.6
2023-01-20T12:03:54.824Z,4.61
2023-01-20T12:04:54.732Z,4.52
2023-01-20T12:05:57.134Z,4.63
2023-01-20T12:06:54.703Z,4.53
2023-01-20T12:07:54.776Z,4.49
2023-01-20T12:08:57.606Z,4.63
2023-01-20T12:09:54.695Z,4.52
2023-01-20T12:10:54.695Z,4.48
2023-01-20T12:11:54.699Z,4.52
2023-01-20T12:12:55.727Z,4.61
2023-01-20T12:13:57.563Z,4.58
2023-01-20T12:14:54.742Z,4.53
2023-01-20T12:15:54.759Z,4.48
2023-01-20T12:16:54.753Z,4.49
2023-01-20T12:17:54.701Z,4.5
2023-01-20T12:19:07.186Z,4.53
2023-01-20T12:19:54.758Z,4.57
2023-01-20T12:21:00.057Z,4.46
2023-01-20T12:21:54.708Z,4.28
2023-01-20T12:22:54.727Z,4.5
2023-01-20T12:23:54.747Z,4.42
2023-01-20T12:24:57.479Z,4.4
2023-01-20T12:25:54.718Z,4.39
2023-01-20T12:26:54.750Z,4.32
2023-01-20T12:27:54.754Z,4.32
2023-01-20T12:28:54.847Z,4.42
2023-01-20T12:29:54.832Z,4.31
2023-01-20T12:30:54.798Z,4.34
2023-01-20T12:31:56.010Z,4.31
2023-01-20T12:32:54.773Z,4.39
2023-01-20T12:33:54.727Z,4.32
2023-01-20T12:34:54.702Z,4.3
2023-01-20T12:35:54.713Z,4.27
2023-01-20T12:36:54.933Z,4.14
2023-01-20T12:37:54.725Z,4.21
2023-01-20T12:38:54.735Z,4.14
2023-01-20T12:39:54.744Z,4.16
2023-01-20T12:40:57.812Z,4.09
2023-01-20T12:41:54.748Z,4.14
2023-01-20T12:42:54.737Z,4.27
2023-01-20T12:43:54.728Z,4.14
2023-01-20T12:44:54.751Z,4.14
2023-01-20T12:45:54.943Z,4.18
2023-01-20T12:46:54.791Z,4.24
2023-01-20T12:47:54.754Z,4.16
2023-01-20T12:48:54.741Z,4.22
2023-01-20T12:49:54.775Z,4.12
2023-01-20T12:50:54.935Z,4.03
2023-01-20T12:51:54.780Z,4.06
2023-01-20T12:52:55.151Z,4.16
2023-01-20T12:53:54.768Z,4.12
2023-01-20T12:54:54.785Z,4.04
2023-01-20T12:55:54.777Z,4.18
2023-01-20T12:56:58.444Z,4.1
2023-01-20T12:57:54.768Z,4.16
2023-01-20T12:58:54.753Z,4.14
2023-01-20T12:59:54.760Z,4.14
2023-01-20T13:00:55.000Z,4.2
2023-01-20T13:01:54.830Z,4.13
2023-01-20T13:02:54.973Z,4.1
2023-01-20T13:03:54.785Z,4.22
2023-01-20T13:04:54.826Z,4.16
2023-01-20T13:05:54.772Z,4.14
2023-01-20T13:06:54.871Z,4.24
2023-01-20T13:07:58.057Z,4.25
2023-01-20T13:08:54.775Z,4.12
2023-01-20T13:09:54.785Z,4.12
2023-01-20T13:10:56.084Z,4.18
2023-01-20T13:11:54.768Z,4.13
2023-01-20T13:12:54.772Z,4.04
2023-01-20T13:14:02.915Z,4.13
2023-01-20T13:14:54.953Z,4.07
2023-01-20T13:15:54.788Z,4.03
2023-01-20T13:16:55.109Z,3.95
2023-01-20T13:17:54.824Z,4
2023-01-20T13:18:58.110Z,4.04
2023-01-20T13:19:54.831Z,4.21
2023-01-20T13:20:54.787Z,4.12
2023-01-20T13:22:11.396Z,4.1